Time;durP1;ratioP1;P1;durP2;ratioP2;P2;SDS_P1;SDS_P2;PMS_P1;PMS_P2;Temp;Humidity;BMP_temperature;BMP_pressure;BME280_temperature;BME280_humidity;BME280_pressure;Samples;Min_cycle;Max_cycle;Signal;HPM_P1;HPM_P2
2021/06/13 00:00:56;;;;;;;6.83;5.03;;;23.70;68.90;;;;;;5166563;27;20209;-67
2021/06/13 00:03:23;;;;;;;5.50;5.00;;;23.70;69.00;;;;;;5163068;27;20251;-67
2021/06/13 00:05:50;;;;;;;5.17;4.67;;;23.60;69.20;;;;;;5166401;27;20202;-67
2021/06/13 00:08:17;;;;;;;5.97;4.57;;;23.50;69.50;;;;;;5158067;27;20214;-67
2021/06/13 00:10:44;;;;;;;10.70;5.13;;;23.50;69.90;;;;;;5164588;27;20279;-67
2021/06/13 00:13:12;;;;;;;7.17;5.00;;;23.40;70.20;;;;;;5165117;27;20592;-67
2021/06/13 00:15:39;;;;;;;7.97;5.10;;;23.30;70.40;;;;;;5162427;27;20210;-67
2021/06/13 00:18:06;;;;;;;5.53;4.97;;;23.30;70.70;;;;;;5165937;27;20264;-67
2021/06/13 00:20:34;;;;;;;5.63;5.03;;;23.30;70.80;;;;;;5166140;27;20295;-67
2021/06/13 00:23:02;;;;;;;5.43;4.90;;;23.20;71.00;;;;;;5154533;27;20210;-67
2021/06/13 00:25:29;;;;;;;7.00;4.97;;;23.10;71.10;;;;;;5160416;27;20206;-67
2021/06/13 00:27:56;;;;;;;6.83;4.67;;;23.10;71.20;;;;;;5162810;27;20256;-67
2021/06/13 00:30:24;;;;;;;5.50;5.00;;;23.10;71.20;;;;;;5164589;27;20214;-67
2021/06/13 00:32:51;;;;;;;5.83;5.23;;;23.00;71.20;;;;;;5164108;27;20624;-67
2021/06/13 00:35:21;;;;;;;6.73;5.13;;;23.00;71.40;;;;;;5165530;27;20218;-67
2021/06/13 00:37:50;;;;;;;9.20;4.87;;;22.90;71.60;;;;;;5162808;27;20560;-67
2021/06/13 00:40:19;;;;;;;6.23;5.63;;;22.80;71.70;;;;;;5157316;27;20540;-67
2021/06/13 00:42:46;;;;;;;6.90;5.13;;;22.70;72.00;;;;;;5166125;27;20210;-67
2021/06/13 00:45:13;;;;;;;6.00;5.23;;;22.70;72.30;;;;;;5164133;27;20211;-67
2021/06/13 00:47:41;;;;;;;5.33;4.80;;;22.70;72.50;;;;;;5167914;27;20214;-67
2021/06/13 00:50:16;;;;;;;5.37;4.73;;;22.60;72.60;;;;;;5169518;27;20215;-67
2021/06/13 00:52:43;;;;;;;6.33;5.10;;;22.60;72.90;;;;;;5112081;27;20256;-67
2021/06/13 00:55:10;;;;;;;5.00;4.60;;;22.60;73.20;;;;;;5106108;28;20532;-67
2021/06/13 00:57:37;;;;;;;6.03;5.10;;;22.50;73.30;;;;;;5106415;28;20217;-67
2021/06/13 01:00:05;;;;;;;6.00;4.40;;;22.50;73.20;;;;;;5106278;28;20722;-67
2021/06/13 01:02:33;;;;;;;5.43;4.60;;;22.50;73.10;;;;;;5107366;28;20221;-67
2021/06/13 01:05:00;;;;;;;8.87;5.47;;;22.50;72.90;;;;;;5104597;28;20220;-67
2021/06/13 01:07:39;;;;;;;7.50;5.40;;;22.50;72.80;;;;;;5104378;28;20347;-67
2021/06/13 01:10:22;;;;;;;6.70;5.40;;;22.50;73.00;;;;;;5105975;28;20211;-67
2021/06/13 01:13:16;;;;;;;7.43;5.33;;;22.50;72.60;;;;;;5105703;28;20213;-67
2021/06/13 01:15:51;;;;;;;8.90;4.80;;;22.40;72.70;;;;;;5101689;28;20266;-68
2021/06/13 01:18:54;;;;;;;7.03;4.90;;;22.40;73.00;;;;;;5106805;28;20293;-68
2021/06/13 01:21:34;;;;;;;5.73;4.97;;;22.30;73.20;;;;;;5104141;28;20216;-68
2021/06/13 01:24:06;;;;;;;8.70;4.90;;;22.30;73.40;;;;;;5105312;28;20213;-68
2021/06/13 01:27:04;;;;;;;6.00;5.50;;;22.30;73.40;;;;;;5104038;28;20204;-68
2021/06/13 01:29:36;;;;;;;6.90;4.90;;;22.30;73.60;;;;;;5105723;28;20209;-68
2021/06/13 01:32:13;;;;;;;5.30;4.80;;;22.30;73.60;;;;;;5106471;28;20216;-68
2021/06/13 01:34:45;;;;;;;5.73;5.23;;;22.30;73.60;;;;;;5103678;28;20212;-68
2021/06/13 01:37:18;;;;;;;5.70;4.60;;;22.20;73.60;;;;;;5104587;28;20580;-68
2021/06/13 01:39:48;;;;;;;9.53;5.33;;;22.20;73.60;;;;;;5105417;28;20236;-67
2021/06/13 01:42:16;;;;;;;5.53;5.00;;;22.10;73.50;;;;;;5107192;28;20196;-67
2021/06/13 01:44:47;;;;;;;6.07;4.80;;;22.10;73.60;;;;;;5107134;28;20209;-67
2021/06/13 01:47:15;;;;;;;5.53;5.03;;;22.10;73.60;;;;;;5104592;28;20258;-67
2021/06/13 01:49:43;;;;;;;6.07;4.97;;;22.10;73.40;;;;;;5107656;28;20274;-67
2021/06/13 01:52:12;;;;;;;5.33;4.83;;;22.10;73.30;;;;;;5126979;27;20526;-67
2021/06/13 01:54:41;;;;;;;6.13;5.10;;;22.10;73.30;;;;;;5163949;27;20567;-67
2021/06/13 01:57:08;;;;;;;7.80;4.77;;;22.00;73.30;;;;;;5160575;27;20218;-67
2021/06/13 01:59:40;;;;;;;5.73;5.13;;;22.10;73.50;;;;;;5161144;27;20530;-67
2021/06/13 02:02:08;;;;;;;5.63;5.13;;;22.00;73.60;;;;;;5162059;27;20589;-67
2021/06/13 02:04:38;;;;;;;9.60;5.20;;;22.00;73.70;;;;;;5164235;27;20290;-67
2021/06/13 02:07:07;;;;;;;5.73;5.17;;;21.90;73.80;;;;;;5169265;27;20207;-67
2021/06/13 02:09:34;;;;;;;5.87;5.37;;;21.90;74.00;;;;;;5165341;27;20586;-67
2021/06/13 02:12:04;;;;;;;5.63;5.13;;;21.80;74.00;;;;;;5161147;27;20305;-67
2021/06/13 02:14:33;;;;;;;8.90;5.40;;;21.80;74.20;;;;;;5165923;27;20209;-67
2021/06/13 02:17:00;;;;;;;5.30;4.80;;;21.70;74.30;;;;;;5168412;27;20635;-67
2021/06/13 02:19:29;;;;;;;5.43;4.90;;;21.70;75.30;;;;;;5159405;27;20599;-67
2021/06/13 02:21:58;;;;;;;7.07;5.47;;;21.70;74.70;;;;;;5166228;27;20258;-67
2021/06/13 02:24:29;;;;;;;6.30;5.70;;;21.60;74.80;;;;;;5162700;27;20215;-67
2021/06/13 02:26:57;;;;;;;5.57;5.13;;;21.60;74.90;;;;;;5168490;27;20806;-67
2021/06/13 02:29:26;;;;;;;8.00;5.33;;;21.60;75.10;;;;;;5164543;27;20206;-67
2021/06/13 02:31:55;;;;;;;12.53;5.57;;;21.50;75.00;;;;;;5149196;27;20215;-67
2021/06/13 02:34:24;;;;;;;6.03;5.50;;;21.50;75.20;;;;;;5165218;27;20808;-67
2021/06/13 02:36:53;;;;;;;8.03;5.77;;;21.50;75.30;;;;;;5168589;27;20218;-67
2021/06/13 02:39:21;;;;;;;11.73;6.07;;;21.40;75.50;;;;;;5164259;27;20263;-67
2021/06/13 02:41:49;;;;;;;7.43;5.20;;;21.40;75.70;;;;;;5165906;27;20282;-67
2021/06/13 02:44:17;;;;;;;7.13;5.43;;;21.40;75.90;;;;;;5166373;27;20513;-67
2021/06/13 02:46:45;;;;;;;7.50;6.73;;;21.40;76.00;;;;;;5167501;27;20266;-67
2021/06/13 02:49:12;;;;;;;6.93;6.10;;;21.50;76.10;;;;;;5164936;27;20215;-67
2021/06/13 02:51:57;;;;;;;6.47;5.87;;;21.40;76.00;;;;;;5164151;27;20309;-67
2021/06/13 02:54:25;;;;;;;8.70;6.50;;;21.40;76.10;;;;;;5164607;27;20259;-68
2021/06/13 02:56:59;;;;;;;10.77;5.77;;;21.30;76.10;;;;;;5163883;27;20240;-68
2021/06/13 02:59:41;;;;;;;9.73;6.17;;;21.20;76.30;;;;;;5165177;27;20233;-68
2021/06/13 03:02:12;;;;;;;7.13;6.53;;;21.20;76.50;;;;;;5164090;27;20233;-68
2021/06/13 03:04:42;;;;;;;10.47;6.37;;;21.20;76.50;;;;;;5159567;27;20599;-68
2021/06/13 03:07:14;;;;;;;6.40;5.80;;;21.10;76.50;;;;;;5164349;27;20221;-68
2021/06/13 03:09:42;;;;;;;6.97;5.77;;;21.10;76.70;;;;;;5166817;27;20213;-68
2021/06/13 03:12:09;;;;;;;7.50;5.73;;;21.00;76.80;;;;;;5164788;27;20243;-68
2021/06/13 03:14:40;;;;;;;14.40;7.80;;;20.90;77.20;;;;;;5165540;27;20594;-68
2021/06/13 03:17:10;;;;;;;7.37;6.03;;;20.90;77.60;;;;;;5164770;27;20210;-68
2021/06/13 03:19:42;;;;;;;7.13;5.90;;;20.90;77.90;;;;;;5165190;27;20252;-68
2021/06/13 03:22:10;;;;;;;6.73;6.20;;;20.90;78.10;;;;;;5164598;27;20207;-68
2021/06/13 03:24:39;;;;;;;6.83;5.97;;;20.80;78.20;;;;;;5145532;27;20292;-68
2021/06/13 03:27:08;;;;;;;12.73;6.77;;;20.80;78.20;;;;;;5161253;27;20199;-68
2021/06/13 03:29:40;;;;;;;8.77;6.00;;;20.80;78.10;;;;;;5166617;27;20591;-68
2021/06/13 03:32:12;;;;;;;8.80;6.20;;;20.70;78.10;;;;;;5166116;27;20207;-68
2021/06/13 03:34:41;;;;;;;9.10;6.73;;;20.70;78.40;;;;;;5167745;27;20221;-68
2021/06/13 03:37:11;;;;;;;7.30;6.63;;;20.70;78.70;;;;;;5160063;27;20895;-68
2021/06/13 03:39:41;;;;;;;6.60;6.00;;;20.60;79.00;;;;;;5167876;27;20234;-67
2021/06/13 03:42:10;;;;;;;8.67;5.80;;;20.70;79.30;;;;;;5165484;27;20270;-67
2021/06/13 03:44:38;;;;;;;6.67;6.07;;;20.70;80.00;;;;;;5164075;27;20206;-67
2021/06/13 03:47:06;;;;;;;7.77;6.97;;;20.70;79.30;;;;;;5163355;27;20211;-67
2021/06/13 03:49:34;;;;;;;13.27;7.57;;;20.70;79.30;;;;;;5159994;27;20222;-67
2021/06/13 03:52:01;;;;;;;7.57;6.90;;;20.80;79.30;;;;;;5166538;27;20234;-67
2021/06/13 03:54:29;;;;;;;10.67;7.67;;;20.80;79.10;;;;;;5144577;27;20279;-67
2021/06/13 03:57:01;;;;;;;9.30;6.87;;;20.70;79.10;;;;;;5165683;27;20206;-67
2021/06/13 03:59:29;;;;;;;7.13;6.43;;;20.70;79.00;;;;;;5163912;27;20259;-67
2021/06/13 04:01:58;;;;;;;7.07;6.13;;;20.70;78.90;;;;;;5167394;27;20266;-67
2021/06/13 04:04:25;;;;;;;10.20;6.10;;;20.70;79.00;;;;;;5156582;27;20260;-67
2021/06/13 04:06:54;;;;;;;10.47;7.20;;;20.70;79.10;;;;;;5159518;27;20230;-67
2021/06/13 04:09:22;;;;;;;8.57;6.47;;;20.70;79.30;;;;;;5163144;27;20217;-67
2021/06/13 04:11:51;;;;;;;6.70;6.10;;;20.70;79.30;;;;;;5165978;27;20207;-67
2021/06/13 04:14:19;;;;;;;7.93;5.83;;;20.70;79.30;;;;;;5147083;27;20620;-67
2021/06/13 04:16:47;;;;;;;7.93;6.40;;;20.70;79.30;;;;;;5171347;27;20271;-67
2021/06/13 04:19:16;;;;;;;7.13;6.53;;;20.70;79.50;;;;;;5163486;27;20238;-67
2021/06/13 04:21:45;;;;;;;7.77;6.93;;;20.80;79.80;;;;;;5169837;27;20218;-67
2021/06/13 04:24:20;;;;;;;7.03;6.40;;;20.80;80.00;;;;;;5169246;27;20207;-67
2021/06/13 04:26:47;;;;;;;8.27;7.43;;;20.90;80.10;;;;;;5163131;27;20262;-67
2021/06/13 04:29:15;;;;;;;7.93;7.10;;;21.00;79.90;;;;;;5163840;27;20219;-67
2021/06/13 04:31:42;;;;;;;7.33;6.47;;;21.00;79.70;;;;;;5170418;27;20210;-67
2021/06/13 04:34:09;;;;;;;7.43;6.83;;;21.10;79.50;;;;;;5171220;27;20249;-67
2021/06/13 04:36:36;;;;;;;10.20;7.50;;;21.20;79.40;;;;;;5151345;27;20226;-67
2021/06/13 04:39:04;;;;;;;8.70;7.07;;;21.30;79.10;;;;;;5168824;27;20252;-67
2021/06/13 04:41:34;;;;;;;8.07;7.30;;;21.40;78.90;;;;;;5171429;27;20596;-67
2021/06/13 04:44:01;;;;;;;7.93;7.13;;;21.60;78.60;;;;;;5171266;27;20215;-67
2021/06/13 04:46:31;;;;;;;8.77;7.83;;;21.70;78.20;;;;;;5168914;27;20202;-67
2021/06/13 04:48:58;;;;;;;8.20;7.40;;;21.90;77.80;;;;;;5172619;27;20596;-67
2021/06/13 04:51:26;;;;;;;9.70;7.93;;;22.10;77.30;;;;;;5164490;27;20241;-67
2021/06/13 04:53:57;;;;;;;10.73;8.10;;;22.30;76.90;;;;;;5169689;27;20716;-67
2021/06/13 04:56:54;;;;;;;9.77;8.87;;;22.40;76.50;;;;;;5146242;27;20223;-67
2021/06/13 04:59:21;;;;;;;9.37;8.37;;;22.50;76.50;;;;;;5163088;27;20675;-67
2021/06/13 05:01:48;;;;;;;9.73;8.67;;;22.60;76.30;;;;;;5173704;27;20207;-67
2021/06/13 05:04:16;;;;;;;10.13;9.33;;;22.80;76.30;;;;;;5167242;27;20267;-67
2021/06/13 05:06:44;;;;;;;10.37;9.27;;;22.90;75.80;;;;;;5166464;27;20207;-67
2021/06/13 05:09:12;;;;;;;10.43;9.43;;;23.00;75.50;;;;;;5169257;27;20211;-67
2021/06/13 05:11:40;;;;;;;10.90;9.80;;;23.10;75.30;;;;;;5167284;27;20219;-68
2021/06/13 05:14:07;;;;;;;9.63;8.67;;;23.30;75.10;;;;;;5166031;27;20597;-68
2021/06/13 05:16:34;;;;;;;8.93;8.13;;;23.50;74.70;;;;;;5154040;27;20559;-68
2021/06/13 05:19:01;;;;;;;9.30;8.40;;;23.60;73.80;;;;;;5166647;27;20234;-68
2021/06/13 05:21:28;;;;;;;9.03;8.30;;;23.80;73.20;;;;;;5167812;27;20260;-68
2021/06/13 05:23:55;;;;;;;9.20;7.73;;;24.00;72.60;;;;;;5168443;27;20210;-68
2021/06/13 05:26:22;;;;;;;8.30;7.60;;;24.10;71.90;;;;;;5162238;27;20240;-68
2021/06/13 05:28:49;;;;;;;9.37;8.57;;;24.30;71.00;;;;;;5169060;27;20210;-68
2021/06/13 05:31:17;;;;;;;10.73;8.73;;;24.40;70.40;;;;;;5166599;27;20267;-68
2021/06/13 05:33:43;;;;;;;13.07;8.73;;;24.60;69.70;;;;;;5169684;27;20285;-68
2021/06/13 05:36:10;;;;;;;8.70;7.90;;;24.80;68.90;;;;;;5166487;27;20231;-68
2021/06/13 05:38:40;;;;;;;9.27;8.37;;;25.10;68.60;;;;;;5169630;27;20214;-68
2021/06/13 05:41:09;;;;;;;9.43;8.63;;;25.30;67.80;;;;;;5170370;27;20263;-68
2021/06/13 05:43:36;;;;;;;8.73;8.03;;;25.60;67.30;;;;;;5168387;27;20207;-68
2021/06/13 05:46:03;;;;;;;13.90;8.37;;;25.90;66.70;;;;;;5163266;27;20267;-68
2021/06/13 05:48:32;;;;;;;9.93;7.93;;;26.20;65.70;;;;;;5169172;27;20210;-68
2021/06/13 05:51:00;;;;;;;8.47;7.77;;;26.50;64.40;;;;;;5161741;27;20584;-68
2021/06/13 05:53:27;;;;;;;8.60;7.90;;;26.80;63.00;;;;;;5168411;27;20253;-68
2021/06/13 05:55:55;;;;;;;8.10;7.40;;;27.00;62.00;;;;;;5161686;27;20764;-68
2021/06/13 05:58:22;;;;;;;11.80;7.30;;;27.10;61.70;;;;;;5167467;27;20278;-68
2021/06/13 06:00:49;;;;;;;8.73;7.93;;;27.30;61.80;;;;;;5149749;27;20235;-68
2021/06/13 06:03:16;;;;;;;10.27;8.07;;;27.40;61.70;;;;;;5167392;27;20577;-68
2021/06/13 06:05:43;;;;;;;11.33;8.60;;;27.60;60.70;;;;;;5164642;27;20553;-68
2021/06/13 06:08:10;;;;;;;8.70;7.90;;;27.90;60.30;;;;;;5165230;27;20274;-68
2021/06/13 06:10:37;;;;;;;9.40;8.20;;;28.00;60.10;;;;;;5165689;27;20253;-68
2021/06/13 06:13:05;;;;;;;8.77;7.97;;;28.10;59.90;;;;;;5165132;27;20214;-68
2021/06/13 06:15:35;;;;;;;9.00;8.20;;;28.20;59.80;;;;;;5166880;27;20286;-68
2021/06/13 06:18:03;;;;;;;9.53;8.63;;;28.20;59.10;;;;;;5167507;27;20218;-68
2021/06/13 06:20:31;;;;;;;10.77;8.80;;;28.40;60.20;;;;;;5168128;27;20656;-68
2021/06/13 06:22:59;;;;;;;8.50;7.80;;;28.50;59.30;;;;;;5169177;27;20214;-68
2021/06/13 06:25:28;;;;;;;9.00;8.20;;;28.70;59.30;;;;;;5162362;27;20248;-68
2021/06/13 06:27:56;;;;;;;8.53;7.80;;;28.90;58.80;;;;;;5167594;27;20217;-68
2021/06/13 06:30:24;;;;;;;10.17;7.93;;;29.00;57.70;;;;;;5165031;27;20226;-68
2021/06/13 06:32:51;;;;;;;9.07;8.03;;;29.20;56.50;;;;;;5165159;27;20238;-68
2021/06/13 06:35:19;;;;;;;7.87;7.17;;;29.20;55.40;;;;;;5164583;27;20222;-68
2021/06/13 06:37:46;;;;;;;8.57;7.77;;;29.20;55.40;;;;;;5167246;27;20210;-68
2021/06/13 06:40:14;;;;;;;8.13;7.43;;;29.30;55.10;;;;;;5168837;27;20235;-68
2021/06/13 06:42:42;;;;;;;9.03;8.13;;;29.30;56.10;;;;;;5164589;27;20211;-68
2021/06/13 06:45:12;;;;;;;7.70;7.00;;;29.40;55.70;;;;;;5162887;27;20632;-68
2021/06/13 06:47:39;;;;;;;8.77;7.53;;;29.60;55.70;;;;;;5166384;27;20210;-68
2021/06/13 06:50:07;;;;;;;9.03;8.23;;;29.80;55.30;;;;;;5167395;27;20281;-68
2021/06/13 06:52:35;;;;;;;8.67;7.57;;;29.90;54.60;;;;;;5164441;27;20246;-68
2021/06/13 06:55:03;;;;;;;8.50;7.80;;;30.10;54.70;;;;;;5157915;27;20214;-68
2021/06/13 06:57:31;;;;;;;9.07;8.17;;;30.20;53.00;;;;;;5167476;27;20202;-68
2021/06/13 06:59:58;;;;;;;9.80;8.10;;;30.20;53.30;;;;;;5165995;27;20234;-68
2021/06/13 07:02:25;;;;;;;10.40;8.17;;;30.20;54.10;;;;;;5166368;27;20221;-68
2021/06/13 07:04:52;;;;;;;8.40;7.60;;;30.30;53.70;;;;;;5164453;27;20206;-68
2021/06/13 07:07:19;;;;;;;8.67;7.07;;;30.40;52.80;;;;;;5163781;27;20260;-68
2021/06/13 07:09:46;;;;;;;10.60;8.33;;;30.50;53.00;;;;;;5167582;27;20282;-68
2021/06/13 07:12:13;;;;;;;8.57;7.80;;;30.60;51.90;;;;;;5163998;27;20222;-68
2021/06/13 07:14:40;;;;;;;8.20;7.40;;;30.60;52.20;;;;;;5161580;27;20242;-68
2021/06/13 07:17:07;;;;;;;12.67;7.83;;;30.70;51.80;;;;;;5164964;27;20211;-68
2021/06/13 07:19:34;;;;;;;8.87;7.40;;;30.90;51.60;;;;;;5165361;27;20230;-68
2021/06/13 07:22:01;;;;;;;14.50;8.07;;;30.90;52.20;;;;;;5165941;27;20210;-68
2021/06/13 07:24:28;;;;;;;13.90;7.80;;;31.00;51.30;;;;;;5163716;27;20636;-68
2021/06/13 07:26:55;;;;;;;9.67;7.27;;;31.10;49.90;;;;;;5163290;27;20210;-68
2021/06/13 07:29:23;;;;;;;8.03;7.37;;;31.20;50.90;;;;;;5164360;27;20211;-68
2021/06/13 07:31:50;;;;;;;7.73;7.03;;;31.30;50.50;;;;;;5159843;27;20218;-68
2021/06/13 07:34:17;;;;;;;8.53;7.60;;;31.30;49.70;;;;;;5167149;27;20252;-68
2021/06/13 07:36:44;;;;;;;11.97;7.40;;;31.30;50.20;;;;;;5164299;27;20214;-68
2021/06/13 07:39:11;;;;;;;8.13;7.43;;;31.50;49.60;;;;;;5163820;27;20640;-68
2021/06/13 07:41:39;;;;;;;8.37;7.43;;;31.50;50.00;;;;;;5165196;27;20330;-68
2021/06/13 07:44:06;;;;;;;9.63;8.73;;;31.60;50.10;;;;;;5166362;27;20611;-68
2021/06/13 07:46:36;;;;;;;10.17;8.23;;;31.70;48.80;;;;;;5160518;27;20221;-68
2021/06/13 07:49:04;;;;;;;9.73;8.80;;;31.70;48.10;;;;;;5171808;27;20210;-68
2021/06/13 07:51:30;;;;;;;10.17;9.37;;;31.70;48.40;;;;;;5170831;27;20211;-68
2021/06/13 07:53:57;;;;;;;9.27;8.33;;;31.60;48.30;;;;;;5173021;27;20282;-68
2021/06/13 07:56:25;;;;;;;9.43;8.37;;;31.40;49.30;;;;;;5169257;27;20262;-68
2021/06/13 07:58:52;;;;;;;9.60;8.70;;;31.40;51.00;;;;;;5174095;27;20214;-68
2021/06/13 08:01:19;;;;;;;8.90;8.20;;;31.60;50.10;;;;;;5173168;27;20318;-68
2021/06/13 08:03:46;;;;;;;9.27;8.57;;;31.80;49.80;;;;;;5170826;27;20207;-68
2021/06/13 08:06:13;;;;;;;11.40;8.20;;;31.90;49.50;;;;;;5168162;27;20199;-68
2021/06/13 08:08:40;;;;;;;11.20;10.20;;;32.10;49.60;;;;;;5166436;27;20271;-68
2021/06/13 08:11:08;;;;;;;9.73;8.83;;;32.20;49.40;;;;;;5173234;27;20226;-68
2021/06/13 08:13:37;;;;;;;10.30;9.43;;;32.30;49.90;;;;;;5171547;27;20218;-68
2021/06/13 08:16:06;;;;;;;10.50;9.60;;;32.40;48.70;;;;;;5171588;27;20210;-68
2021/06/13 08:18:33;;;;;;;12.60;11.50;;;32.50;48.60;;;;;;5170116;27;20202;-68
2021/06/13 08:21:01;;;;;;;12.53;11.57;;;32.60;47.90;;;;;;5169357;27;20237;-68
2021/06/13 08:23:31;;;;;;;11.50;10.30;;;32.50;47.90;;;;;;5165813;27;20864;-68
2021/06/13 08:26:01;;;;;;;11.17;10.07;;;32.40;48.60;;;;;;5169884;27;20206;-68
2021/06/13 08:28:28;;;;;;;11.60;9.80;;;32.50;48.80;;;;;;5171691;27;20267;-68
2021/06/13 08:30:56;;;;;;;11.03;9.97;;;32.70;49.20;;;;;;5170031;27;20271;-68
2021/06/13 08:33:24;;;;;;;16.57;8.60;;;32.80;48.60;;;;;;5170931;27;20279;-68
2021/06/13 08:35:52;;;;;;;10.77;8.17;;;33.00;48.70;;;;;;5173910;27;20210;-68
2021/06/13 08:38:21;;;;;;;8.43;7.63;;;33.10;48.40;;;;;;5166264;27;20552;-68
2021/06/13 08:40:48;;;;;;;9.53;8.67;;;33.30;48.70;;;;;;5168504;27;20294;-68
2021/06/13 08:43:15;;;;;;;8.17;7.53;;;33.30;47.80;;;;;;5171523;27;20266;-68
2021/06/13 08:45:44;;;;;;;10.53;9.60;;;33.40;47.20;;;;;;5152284;27;20505;-68
2021/06/13 08:48:13;;;;;;;9.37;8.43;;;33.50;47.10;;;;;;5173769;27;20297;-68
2021/06/13 08:50:40;;;;;;;10.53;9.23;;;33.60;47.00;;;;;;5173682;27;20210;-68
2021/06/13 08:53:08;;;;;;;9.93;8.60;;;33.50;46.80;;;;;;5165389;27;20303;-68
2021/06/13 08:55:35;;;;;;;10.70;9.60;;;33.40;47.30;;;;;;5166579;27;20218;-68
2021/06/13 08:58:04;;;;;;;10.67;9.60;;;33.40;46.90;;;;;;5171177;27;20210;-68
2021/06/13 09:00:32;;;;;;;9.27;8.20;;;33.50;47.10;;;;;;5168407;27;20221;-68
2021/06/13 09:03:01;;;;;;;10.23;9.23;;;33.60;47.00;;;;;;5165895;27;20633;-68
2021/06/13 09:05:28;;;;;;;10.60;9.50;;;33.70;46.80;;;;;;5169680;27;20256;-68
2021/06/13 09:07:59;;;;;;;8.03;7.33;;;33.60;46.20;;;;;;5169848;27;20211;-68
2021/06/13 09:10:31;;;;;;;9.07;8.17;;;33.60;47.00;;;;;;5167271;27;20203;-68
2021/06/13 09:13:22;;;;;;;10.80;9.90;;;33.70;46.70;;;;;;5167792;27;20214;-68
2021/06/13 09:15:58;;;;;;;7.93;7.33;;;33.70;45.60;;;;;;5161773;27;20210;-68
2021/06/13 09:18:31;;;;;;;10.13;9.17;;;33.60;46.80;;;;;;5167235;27;20274;-68
2021/06/13 09:20:59;;;;;;;8.63;7.93;;;33.70;45.60;;;;;;5168702;27;20265;-68
2021/06/13 09:23:29;;;;;;;10.00;8.53;;;33.60;45.60;;;;;;5167883;27;20206;-68
2021/06/13 09:26:03;;;;;;;9.10;8.40;;;33.60;45.90;;;;;;5163107;27;20203;-68
2021/06/13 09:28:32;;;;;;;10.17;8.87;;;33.30;45.40;;;;;;5161593;27;20215;-68
2021/06/13 09:31:00;;;;;;;8.40;7.80;;;33.30;46.00;;;;;;5166715;27;20215;-68
2021/06/13 09:33:30;;;;;;;8.93;8.23;;;33.20;46.10;;;;;;5167780;27;20214;-68
2021/06/13 09:36:05;;;;;;;7.60;6.97;;;33.30;45.80;;;;;;5168781;27;20218;-68
2021/06/13 09:38:45;;;;;;;13.27;8.43;;;33.40;46.10;;;;;;5161869;27;20238;-68
2021/06/13 09:41:21;;;;;;;9.07;7.67;;;33.60;46.30;;;;;;5166754;27;20222;-68
2021/06/13 09:44:03;;;;;;;9.50;8.60;;;33.70;46.00;;;;;;5162096;27;20218;-68
2021/06/13 09:46:34;;;;;;;10.27;9.37;;;33.80;45.10;;;;;;5162222;27;20207;-68
2021/06/13 09:49:15;;;;;;;8.27;7.57;;;33.80;45.40;;;;;;5165134;27;20764;-68
2021/06/13 09:51:45;;;;;;;10.13;8.43;;;33.80;46.00;;;;;;5166642;27;20660;-68
2021/06/13 09:54:20;;;;;;;9.13;8.40;;;34.00;46.20;;;;;;5168289;27;20214;-68
2021/06/13 09:56:47;;;;;;;9.20;8.30;;;34.10;45.60;;;;;;5162899;27;20214;-68
2021/06/13 09:59:25;;;;;;;10.53;9.57;;;34.20;45.80;;;;;;5167573;27;20274;-68
2021/06/13 10:01:55;;;;;;;9.67;8.77;;;34.40;45.40;;;;;;5163136;27;20275;-68
2021/06/13 10:04:37;;;;;;;9.03;8.13;;;34.50;45.50;;;;;;5161985;27;20202;-68
2021/06/13 10:07:16;;;;;;;8.90;8.20;;;34.70;45.40;;;;;;5168282;27;20214;-68
2021/06/13 10:09:49;;;;;;;9.80;9.00;;;34.80;44.90;;;;;;5163403;27;20235;-68
2021/06/13 10:12:16;;;;;;;11.57;8.80;;;34.90;44.90;;;;;;5165418;27;20214;-68
2021/06/13 10:14:44;;;;;;;10.57;9.50;;;34.90;44.70;;;;;;5164675;27;20248;-68
2021/06/13 10:17:11;;;;;;;10.70;9.90;;;34.80;44.30;;;;;;5168881;27;20210;-68
2021/06/13 10:19:44;;;;;;;11.30;10.20;;;34.70;44.00;;;;;;5164734;27;20198;-68
2021/06/13 10:22:12;;;;;;;9.37;8.27;;;34.50;45.10;;;;;;5165989;27;20699;-68
2021/06/13 10:24:42;;;;;;;10.17;9.00;;;34.40;46.00;;;;;;5164866;27;20211;-68
2021/06/13 10:27:15;;;;;;;12.00;9.53;;;34.40;45.20;;;;;;5167434;27;20199;-68
2021/06/13 10:29:45;;;;;;;7.73;7.03;;;34.40;44.90;;;;;;5161061;27;20291;-68
2021/06/13 10:32:14;;;;;;;10.70;9.43;;;34.50;44.80;;;;;;5169009;27;20294;-68
2021/06/13 10:34:41;;;;;;;9.73;8.93;;;34.70;44.60;;;;;;5166143;27;20300;-68
2021/06/13 10:37:13;;;;;;;9.33;8.63;;;34.80;44.30;;;;;;5166941;27;20223;-68
2021/06/13 10:39:41;;;;;;;10.50;9.27;;;34.80;44.40;;;;;;5164479;27;20256;-68
2021/06/13 10:42:14;;;;;;;8.87;7.97;;;34.90;44.00;;;;;;5160722;27;20287;-68
2021/06/13 10:44:50;;;;;;;8.10;7.40;;;34.80;45.10;;;;;;5165437;27;20207;-68
2021/06/13 10:47:19;;;;;;;8.57;7.40;;;34.90;45.70;;;;;;5167640;27;20210;-68
2021/06/13 10:49:55;;;;;;;8.90;7.43;;;35.00;45.10;;;;;;5164197;27;20206;-68
2021/06/13 10:52:27;;;;;;;9.83;8.83;;;35.10;44.70;;;;;;5163514;27;20242;-68
2021/06/13 10:55:03;;;;;;;8.30;7.63;;;35.10;43.70;;;;;;5161105;27;20207;-68
2021/06/13 10:57:33;;;;;;;8.97;8.10;;;35.10;42.80;;;;;;5161793;27;20207;-68
2021/06/13 11:00:06;;;;;;;7.63;7.03;;;35.00;42.60;;;;;;5165776;27;20592;-68
2021/06/13 11:02:38;;;;;;;11.40;7.53;;;34.90;43.50;;;;;;5164987;27;20242;-68
2021/06/13 11:05:08;;;;;;;7.73;6.93;;;34.90;44.30;;;;;;5160490;27;20605;-68
2021/06/13 11:07:39;;;;;;;8.27;7.57;;;35.00;44.10;;;;;;5166333;27;20623;-68
2021/06/13 11:10:10;;;;;;;7.90;7.20;;;35.20;43.30;;;;;;5161260;27;20203;-68
2021/06/13 11:12:46;;;;;;;8.90;8.10;;;35.20;43.20;;;;;;5157726;27;20263;-68
2021/06/13 11:15:22;;;;;;;9.43;8.67;;;35.40;42.90;;;;;;5157916;27;20199;-68
2021/06/13 11:18:05;;;;;;;9.27;8.33;;;35.50;43.40;;;;;;5164286;27;20206;-68
2021/06/13 11:23:38;;;;;;;8.43;7.70;;;35.20;43.40;;;;;;5164058;27;20233;-68
2021/06/13 11:26:10;;;;;;;9.47;8.57;;;35.30;44.00;;;;;;5155778;27;20219;-68
2021/06/13 11:28:41;;;;;;;7.90;7.10;;;35.30;43.30;;;;;;5165041;27;20207;-68
2021/06/13 11:31:08;;;;;;;8.37;7.63;;;35.30;43.00;;;;;;5165200;27;20210;-68
2021/06/13 11:33:40;;;;;;;7.60;7.00;;;35.30;42.50;;;;;;5166186;27;20218;-68
2021/06/13 11:36:23;;;;;;;9.27;8.47;;;35.40;42.90;;;;;;5163187;27;20248;-68
2021/06/13 11:38:53;;;;;;;9.50;8.70;;;35.40;43.00;;;;;;5166008;27;20274;-68
2021/06/13 11:41:25;;;;;;;11.03;9.93;;;35.30;43.00;;;;;;5163214;27;20250;-68
2021/06/13 11:43:52;;;;;;;9.53;8.47;;;35.20;42.60;;;;;;5160871;27;20207;-68
2021/06/13 11:46:38;;;;;;;8.90;8.20;;;35.20;43.40;;;;;;5165586;27;20202;-68
2021/06/13 11:49:10;;;;;;;7.27;6.77;;;35.10;42.40;;;;;;5160074;27;20620;-68
2021/06/13 11:51:54;;;;;;;7.47;6.87;;;35.00;42.90;;;;;;5165415;27;20222;-68
2021/06/13 11:54:39;;;;;;;9.03;8.33;;;35.00;43.80;;;;;;5158596;27;20225;-68
2021/06/13 11:57:15;;;;;;;8.47;7.40;;;34.90;42.30;;;;;;5166867;27;20247;-68
2021/06/13 11:59:47;;;;;;;7.90;7.30;;;34.80;44.00;;;;;;5161453;27;20223;-68
2021/06/13 12:02:22;;;;;;;8.07;7.27;;;34.80;43.00;;;;;;5158384;27;20613;-68
2021/06/13 12:04:49;;;;;;;9.33;8.43;;;34.90;43.90;;;;;;5159103;27;20214;-68
2021/06/13 12:07:21;;;;;;;8.67;7.80;;;34.90;44.60;;;;;;5166177;27;20285;-68
2021/06/13 12:09:49;;;;;;;10.10;9.20;;;35.00;43.40;;;;;;5165100;27;20259;-68
2021/06/13 12:12:20;;;;;;;9.93;9.10;;;35.00;42.60;;;;;;5164312;27;20214;-68
2021/06/13 12:14:49;;;;;;;9.47;8.60;;;34.80;42.70;;;;;;5162464;27;20229;-68
2021/06/13 12:17:18;;;;;;;9.33;7.33;;;34.70;42.90;;;;;;5159361;27;20226;-68
2021/06/13 12:19:47;;;;;;;8.07;7.27;;;34.70;45.40;;;;;;5161519;27;20214;-68
2021/06/13 12:28:30;;;;;;;9.30;8.40;;;34.80;44.20;;;;;;5088323;28;20266;-68
2021/06/13 12:30:58;;;;;;;8.03;7.27;;;34.70;42.70;;;;;;5136442;27;20555;-68
2021/06/13 12:33:35;;;;;;;10.67;8.90;;;34.60;42.70;;;;;;5162686;27;20249;-68
2021/06/13 12:36:07;;;;;;;9.63;8.77;;;34.30;42.20;;;;;;5163513;27;20263;-68
2021/06/13 12:38:36;;;;;;;9.63;8.73;;;34.20;42.90;;;;;;5171013;27;20243;-68
2021/06/13 12:41:04;;;;;;;8.47;7.77;;;34.10;42.60;;;;;;5167187;27;20315;-68
2021/06/13 12:43:48;;;;;;;8.17;7.50;;;34.00;43.50;;;;;;5170480;27;20214;-68
2021/06/13 12:46:16;;;;;;;8.80;8.00;;;34.10;45.00;;;;;;5168424;27;20205;-68
2021/06/13 12:48:44;;;;;;;10.80;6.97;;;34.20;44.20;;;;;;5166966;27;20216;-68
2021/06/13 12:51:22;;;;;;;7.50;6.90;;;34.40;45.80;;;;;;5162794;27;20222;-68
2021/06/13 12:53:49;;;;;;;8.20;7.50;;;34.60;45.50;;;;;;5168086;27;20278;-68
2021/06/13 12:56:20;;;;;;;9.33;8.63;;;34.80;45.40;;;;;;5166362;27;20225;-68
2021/06/13 12:58:47;;;;;;;9.40;8.67;;;34.80;44.00;;;;;;5166345;27;20645;-68
2021/06/13 13:01:15;;;;;;;8.40;7.60;;;34.80;44.00;;;;;;5162342;27;20252;-68
2021/06/13 13:03:50;;;;;;;8.40;7.60;;;34.80;44.20;;;;;;5167182;27;20585;-68
2021/06/13 13:06:17;;;;;;;8.57;7.30;;;34.90;44.30;;;;;;5167347;27;20594;-68